Port Angeles, WA

8:34 PM PST on February 11, 2016 (GMT -0800)
Friday Harbor | | Change Station
CLOSE
Current Station
Airport
Location: Friday Harbor,
Elevation: 108 ft
Nearby Weather Stations

Elev 108 ft 48.52 °N, 123.02 °W | Updated 41 minutes ago

Rain
Rain
51 °F
Feels Like 51 °F
N
10
Wind Variable Wind from East
Gusts 18 mph

Today
High -- | Low -- °F
--% Chance of Precip.
Yesterday
High -- | Low -- °F
Precip. -- in
Pressure 30.07 in
Visibility 10.0 miles
Clouds Overcast 2400 ft
Dew Point 48 °F
Humidity 89%
Rainfall 0.11 in
Snow Depth Not available.
7:27 AM 5:29 PM
Waxing Crescent, 17% visible
METAR KFHR 120353Z AUTO 08009G16KT 10SM -RA OVC024 11/09 A3007 RMK AO2 SLP182 P0001 T01060089
Pressure 30.07 in
Visibility 10.0 miles
Clouds Overcast 2400 ft
Dew Point 48 °F
Humidity 89%
Rainfall 0.11 in
Snow Depth Not available.
7:27 AM 5:29 PM
Waxing Crescent, 17% visible
METAR KFHR 120353Z AUTO 08009G16KT 10SM -RA OVC024 11/09 A3007 RMK AO2 SLP182 P0001 T01060089

10-Day Weather Forecast

Almanac

Astronomy

Feb. 11, 2016 Rise Set
Actual Time
Civil Twilight
Nautical Twilight
Astronomical Twilight
Moon
Length of Visible Light
Length of Day
Tomorrow will be .
, % of the Moon is Illuminated

Today's Extremes

State Highs State Lows

Community

WunderPhotos

Upload Photos

1,892,266 photos uploaded!

WunderBlog® & News

Nearby

Air Quality

  Air Quality AQ Index Pollutant
Not available.

Snow Depth

Station Depth Elevation

Earthquake Activity

City Distance Mag. Time & Date
Minimum magnitude displayed is 2.5.

Coastal Water Temperatures

Place Temperature

Stations

Nearby Weather Stations

Station Location Temp. Windchill Dew Point Humidity Wind Precip. Elev Updated Type
                   

Watches & Warnings

There are currently no watches in effect.